Date,TemperatureHighF,TemperatureAvgF,TemperatureLowF,DewpointHighF,DewpointAvgF,DewpointLowF,HumidityHigh,HumidityAvg,HumidityLow,PressureMaxIn,PressureMinIn,WindSpeedMaxMPH,WindSpeedAvgMPH,GustSpeedMaxMPH,PrecipitationSumIn
2013-1-3,0.0,-0.3,-0.9,-17.3,-17.9,-18.4,43,42,41,31.76,31.75,0,0,0,0.11
2013-1-4,40.5,16.0,-4.0,7.9,-5.7,-18.8,58,39,22,31.75,31.62,9,1,9,0.11
2013-1-5,41.4,17.9,1.2,6.6,-8.1,-20.0,45,32,21,31.86,31.66,16,2,16,0.00
2013-1-6,39.0,15.4,-4.0,6.1,-9.5,-20.9,46,33,21,31.85,31.67,11,1,11,0.00
2013-1-7,40.6,19.1,2.8,36.5,-6.2,-20.7,97,33,21,31.70,31.59,6,1,6,0.00
2013-1-8,39.2,21.8,8.1,15.1,0.2,-20.7,60,40,24,31.87,31.59,14,2,14,0.00
2013-1-9,42.6,21.5,4.5,10.2,1.6,-6.9,65,44,23,31.93,31.74,11,1,11,0.00
2013-1-10,39.6,18.8,3.0,7.7,-0.7,-8.7,61,44,22,31.74,31.28,13,2,13,0.00
2013-1-11,19.6,10.5,-5.8,10.6,-6.2,-22.5,75,49,22,31.36,31.10,20,1,21,0.00
2013-1-12,15.4,-4.3,-17.1,-14.1,-23.5,-33.0,53,40,22,31.40,31.32,8,1,8,0.00
2013-1-13,13.5,-7.1,-21.1,-13.2,-24.2,-36.6,56,43,23,31.44,31.36,12,2,12,0.00
2013-1-14,16.9,-6.2,-19.3,-11.7,-24.3,-35.1,52,41,25,31.52,31.39,9,1,9,0.56
2013-1-15,18.9,3.8,-13.7,0.9,-12.3,-28.7,60,47,31,31.78,31.51,11,3,11,0.00
2013-1-16,40.3,20.8,6.8,19.4,7.1,-4.5,71,56,40,31.91,31.77,10,2,10,0.00
2013-1-17,42.8,19.4,3.2,13.5,2.3,-6.0,70,50,24,31.98,31.87,8,1,8,0.00
2013-1-18,42.6,22.0,4.5,7.3,-2.6,-10.5,58,36,21,31.90,31.79,13,3,14,0.00
2013-1-19,44.2,26.2,14.9,20.7,-4.9,-13.7,60,25,21,31.91,31.79,8,2,9,0.00
2013-1-20,44.2,25.9,9.1,7.5,-5.0,-18.9,32,25,21,31.86,31.78,13,2,13,0.00
2013-1-21,41.5,25.2,14.5,34.9,-3.9,-14.3,97,28,21,31.85,31.79,16,4,17,0.00
2013-1-22,50.7,28.8,12.2,27.5,-3.7,-17.0,97,24,21,31.93,31.82,15,2,15,0.00
2013-1-23,54.9,27.6,7.9,26.6,-4.7,-22.5,97,24,20,31.94,31.87,13,1,13,0.00
2013-1-24,45.7,31.6,16.0,44.1,10.6,-11.9,97,44,21,31.88,31.77,16,3,16,0.00
2013-1-25,44.1,32.3,25.0,27.7,22.7,18.0,77,68,51,31.83,31.73,10,2,10,0.00
2013-1-26,40.5,28.2,16.9,27.9,21.5,10.4,91,77,47,33.35,31.46,15,3,15,0.00
2013-1-27,47.3,30.1,17.1,30.2,19.0,5.0,91,66,36,31.53,31.46,20,2,20,0.09
2013-1-28,30.9,20.8,12.9,23.7,12.7,4.1,80,71,59,31.50,31.33,9,1,9,0.00
2013-1-29,20.3,8.2,-2.9,7.0,-9.4,-20.2,70,46,24,31.43,31.27,17,3,17,0.00
2013-1-30,24.6,11.0,-5.3,6.3,-3.0,-17.9,66,53,42,31.62,31.42,15,4,15,0.00
2013-1-31,34.5,21.2,12.7,10.8,5.1,1.4,69,50,26,31.78,31.60,17,3,17,0.00